Time;durP1;ratioP1;P1;durP2;ratioP2;P2;SDS_P1;SDS_P2;PMS_P1;PMS_P2;Temp;Humidity;BMP_temperature;BMP_pressure;BME280_temperature;BME280_humidity;BME280_pressure;Samples;Min_cycle;Max_cycle;Signal;HPM_P1;HPM_P2
2024/01/06 00:02:16;;;;;;;;;;;16.80;48.00;;;;;;5111374;28;20455;-67
2024/01/06 00:04:41;;;;;;;;;;;16.70;47.90;;;;;;5111454;28;19928;-67
2024/01/06 00:07:07;;;;;;;;;;;16.70;48.00;;;;;;5113223;28;19919;-68
2024/01/06 00:09:32;;;;;;;;;;;16.70;48.00;;;;;;5111582;28;20378;-67
2024/01/06 00:11:58;;;;;;;;;;;16.70;48.00;;;;;;5111412;28;19919;-67
2024/01/06 00:14:24;;;;;;;;;;;16.70;48.00;;;;;;5111510;28;19972;-68
2024/01/06 00:16:49;;;;;;;;;;;16.70;48.00;;;;;;5111262;28;20026;-70
2024/01/06 00:19:17;;;;;;;;;;;16.70;48.00;;;;;;5111563;28;19924;-68
2024/01/06 00:21:43;;;;;;;;;;;16.60;48.00;;;;;;5111615;28;19942;-67
2024/01/06 00:24:08;;;;;;;;;;;16.70;48.10;;;;;;5112475;28;20379;-67
2024/01/06 00:26:34;;;;;;;;;;;16.60;48.00;;;;;;5112820;28;19923;-67
2024/01/06 00:28:59;;;;;;;;;;;16.60;48.00;;;;;;5111203;28;19927;-67
2024/01/06 00:31:25;;;;;;;;;;;16.60;48.10;;;;;;5111197;28;20002;-68
2024/01/06 00:33:50;;;;;;;;;;;16.50;48.10;;;;;;5111091;28;19919;-68
2024/01/06 00:36:16;;;;;;;;;;;16.50;48.10;;;;;;5111248;28;19927;-68
2024/01/06 00:38:41;;;;;;;;;;;16.50;48.20;;;;;;5110976;28;19923;-68
2024/01/06 00:41:07;;;;;;;;;;;16.50;48.20;;;;;;5111319;28;19924;-67
2024/01/06 00:43:32;;;;;;;;;;;16.50;48.20;;;;;;5112327;28;19923;-67
2024/01/06 00:45:58;;;;;;;;;;;16.50;48.30;;;;;;5112390;28;20026;-68
2024/01/06 00:48:24;;;;;;;;;;;16.40;48.30;;;;;;5112332;28;19973;-68
2024/01/06 00:50:49;;;;;;;;;;;16.40;48.30;;;;;;5110899;28;19946;-68
2024/01/06 00:53:14;;;;;;;;;;;16.40;48.30;;;;;;5111350;28;19968;-66
2024/01/06 00:55:43;;;;;;;;;;;16.40;48.40;;;;;;5112185;28;19920;-67
2024/01/06 00:58:08;;;;;;;;;;;16.40;48.40;;;;;;5112147;28;19928;-68
2024/01/06 01:00:34;;;;;;;;;;;16.30;48.40;;;;;;5128333;28;19926;-68
2024/01/06 01:03:00;;;;;;;;;;;16.30;48.50;;;;;;5093947;28;20401;-67
2024/01/06 01:05:25;;;;;;;;;;;16.30;48.50;;;;;;5114874;28;19951;-67
2024/01/06 01:07:54;;;;;;;;;;;16.30;48.50;;;;;;5132432;27;19920;-68
2024/01/06 01:10:19;;;;;;;;;;;16.20;48.50;;;;;;5115775;28;19924;-68
2024/01/06 01:12:45;;;;;;;;;;;16.20;48.50;;;;;;5131729;27;19927;-67
2024/01/06 01:15:10;;;;;;;;;;;16.20;48.60;;;;;;5115628;28;20021;-68
2024/01/06 01:17:37;;;;;;;;;;;16.20;48.60;;;;;;5115811;28;20176;-67
2024/01/06 01:20:02;;;;;;;;;;;16.10;48.60;;;;;;5097357;28;19924;-68
2024/01/06 01:22:28;;;;;;;;;;;16.10;48.60;;;;;;5097729;28;19969;-67
2024/01/06 01:24:53;;;;;;;;;;;16.10;48.70;;;;;;5131638;27;19919;-68
2024/01/06 01:27:19;;;;;;;;;;;16.00;48.80;;;;;;5097545;28;20373;-68
2024/01/06 01:29:44;;;;;;;;;;;16.00;48.80;;;;;;5097509;28;19972;-68
2024/01/06 01:32:10;;;;;;;;;;;16.00;48.80;;;;;;5115564;28;19946;-68
2024/01/06 01:34:35;;;;;;;;;;;16.00;48.90;;;;;;5115837;28;19965;-67
2024/01/06 01:37:01;;;;;;;;;;;15.90;48.90;;;;;;5097488;28;19946;-68
2024/01/06 01:39:26;;;;;;;;;;;15.90;49.00;;;;;;5115349;28;20393;-70
2024/01/06 01:41:52;;;;;;;;;;;15.80;49.10;;;;;;5131275;27;19924;-68
2024/01/06 01:44:18;;;;;;;;;;;15.80;49.20;;;;;;5131403;27;20423;-67
2024/01/06 01:46:43;;;;;;;;;;;15.70;49.20;;;;;;5096821;28;19919;-66
2024/01/06 01:49:09;;;;;;;;;;;15.70;49.30;;;;;;5096857;28;19927;-67
2024/01/06 01:51:35;;;;;;;;;;;15.70;49.40;;;;;;5115020;28;20018;-68
2024/01/06 01:54:02;;;;;;;;;;;15.60;49.50;;;;;;5115055;28;19927;-67
2024/01/06 01:56:29;;;;;;;;;;;15.60;49.50;;;;;;5114710;28;19924;-67
2024/01/06 01:58:55;;;;;;;;;;;15.50;49.50;;;;;;5114861;28;20294;-70
2024/01/06 02:01:20;;;;;;;;;;;15.60;49.60;;;;;;5096901;28;19927;-68
2024/01/06 02:03:46;;;;;;;;;;;15.50;49.60;;;;;;5096870;28;19919;-68
2024/01/06 02:06:12;;;;;;;;;;;15.50;49.70;;;;;;5096385;28;20428;-67
2024/01/06 02:08:38;;;;;;;;;;;15.50;49.70;;;;;;5096751;28;19919;-68
2024/01/06 02:11:03;;;;;;;;;;;15.60;49.80;;;;;;5096725;28;19990;-68
2024/01/06 02:13:33;;;;;;;;;;;15.90;49.50;;;;;;5079708;28;19972;-67
2024/01/06 02:15:58;;;;;;;;;;;16.30;48.60;;;;;;5096669;28;20353;-68
2024/01/06 02:18:24;;;;;;;;;;;16.80;47.80;;;;;;5096212;28;19963;-68
2024/01/06 02:20:49;;;;;;;;;;;17.30;47.00;;;;;;5114519;28;19927;-68
2024/01/06 02:23:15;;;;;;;;;;;17.80;45.90;;;;;;5114482;28;19965;-67
2024/01/06 02:25:41;;;;;;;;;;;18.40;44.90;;;;;;5096585;28;19919;-68
2024/01/06 02:28:06;;;;;;;;;;;19.00;43.80;;;;;;5114181;28;19972;-68
2024/01/06 02:30:32;;;;;;;;;;;19.40;43.00;;;;;;5096049;28;19920;-67
2024/01/06 02:32:57;;;;;;;;;;;19.70;43.20;;;;;;5096230;28;19971;-67
2024/01/06 02:35:23;;;;;;;;;;;19.80;42.00;;;;;;5114538;28;19923;-67
2024/01/06 02:37:48;;;;;;;;;;;19.80;41.80;;;;;;5114005;28;19924;-67
2024/01/06 02:40:14;;;;;;;;;;;19.70;41.80;;;;;;5130333;27;19919;-67
2024/01/06 02:42:39;;;;;;;;;;;19.70;42.00;;;;;;5095984;28;19920;-67
2024/01/06 02:45:06;;;;;;;;;;;19.50;42.20;;;;;;5129800;27;20298;-67
2024/01/06 02:47:32;;;;;;;;;;;19.30;42.40;;;;;;5095880;28;19984;-68
2024/01/06 02:49:57;;;;;;;;;;;19.10;42.70;;;;;;5129756;27;20418;-67
2024/01/06 02:52:23;;;;;;;;;;;18.90;43.00;;;;;;5130017;27;19924;-69
2024/01/06 02:54:48;;;;;;;;;;;18.70;43.40;;;;;;5129605;27;19920;-68
2024/01/06 02:57:14;;;;;;;;;;;18.50;43.60;;;;;;5136182;27;19924;-67
2024/01/06 02:59:40;;;;;;;;;;;18.30;43.90;;;;;;5113491;28;19965;-68
2024/01/06 03:02:06;;;;;;;;;;;18.20;44.30;;;;;;5113864;28;19919;-68
2024/01/06 03:04:31;;;;;;;;;;;18.00;44.60;;;;;;5112605;28;20439;-67
2024/01/06 03:06:57;;;;;;;;;;;17.80;44.80;;;;;;5112245;28;20365;-68
2024/01/06 03:09:22;;;;;;;;;;;17.70;45.00;;;;;;5112273;28;19931;-68
2024/01/06 03:11:48;;;;;;;;;;;17.60;45.30;;;;;;5112255;28;20006;-67
2024/01/06 03:14:16;;;;;;;;;;;17.40;45.40;;;;;;5112565;28;19920;-67
2024/01/06 03:16:42;;;;;;;;;;;17.30;45.70;;;;;;5112327;28;19923;-68
2024/01/06 03:19:07;;;;;;;;;;;17.20;45.90;;;;;;5112076;28;19969;-68
2024/01/06 03:21:33;;;;;;;;;;;17.10;46.10;;;;;;5113377;28;20275;-68
2024/01/06 03:23:58;;;;;;;;;;;16.90;46.20;;;;;;5112235;28;19920;-67
2024/01/06 03:26:24;;;;;;;;;;;16.80;46.40;;;;;;5146746;27;19957;-68
2024/01/06 03:28:49;;;;;;;;;;;16.70;46.60;;;;;;5111806;28;20358;-68
2024/01/06 03:31:15;;;;;;;;;;;16.70;46.80;;;;;;5111887;28;19954;-68
2024/01/06 03:33:44;;;;;;;;;;;16.60;46.90;;;;;;5146592;27;20080;-67
2024/01/06 03:36:12;;;;;;;;;;;16.60;46.90;;;;;;5112069;28;20375;-67
2024/01/06 03:38:37;;;;;;;;;;;16.70;46.90;;;;;;5111885;28;19987;-68
2024/01/06 03:41:03;;;;;;;;;;;16.70;46.70;;;;;;5111969;28;19958;-68
2024/01/06 03:43:29;;;;;;;;;;;16.80;46.60;;;;;;5111785;28;20389;-67
2024/01/06 03:45:56;;;;;;;;;;;16.80;46.50;;;;;;5111811;28;20289;-68
2024/01/06 03:48:22;;;;;;;;;;;16.80;46.40;;;;;;5111956;28;19920;-68
2024/01/06 03:50:47;;;;;;;;;;;16.80;46.30;;;;;;5111792;28;20389;-68
2024/01/06 03:53:13;;;;;;;;;;;16.80;46.30;;;;;;5112969;28;19923;-67
2024/01/06 03:55:38;;;;;;;;;;;16.80;46.30;;;;;;5146319;27;20393;-67
2024/01/06 03:58:04;;;;;;;;;;;16.80;46.30;;;;;;5131797;27;19924;-67
2024/01/06 04:00:30;;;;;;;;;;;16.80;46.30;;;;;;5112625;28;20428;-68
2024/01/06 04:02:58;;;;;;;;;;;16.80;46.20;;;;;;5128901;28;19926;-68
2024/01/06 04:05:29;;;;;;;;;;;16.70;46.20;;;;;;5112824;28;20379;-67
2024/01/06 04:07:55;;;;;;;;;;;16.70;46.20;;;;;;5094797;28;19963;-68
2024/01/06 04:10:20;;;;;;;;;;;16.70;46.20;;;;;;5112641;28;20290;-68
2024/01/06 04:12:46;;;;;;;;;;;16.70;46.30;;;;;;5112709;28;19920;-68
2024/01/06 04:15:12;;;;;;;;;;;16.70;46.40;;;;;;5112574;28;19962;-68
2024/01/06 04:17:37;;;;;;;;;;;16.70;46.40;;;;;;5094369;28;19930;-68
2024/01/06 04:20:04;;;;;;;;;;;16.60;46.40;;;;;;5094290;28;19924;-68
2024/01/06 04:22:29;;;;;;;;;;;16.60;46.40;;;;;;5112556;28;20393;-68
2024/01/06 04:24:55;;;;;;;;;;;16.60;46.40;;;;;;5094776;28;19920;-67
2024/01/06 04:27:20;;;;;;;;;;;16.60;46.50;;;;;;5094274;28;19927;-68
2024/01/06 04:29:46;;;;;;;;;;;16.60;46.50;;;;;;5094480;28;19919;-67
2024/01/06 04:32:12;;;;;;;;;;;16.50;46.60;;;;;;5094493;28;20292;-68
2024/01/06 04:34:37;;;;;;;;;;;16.50;46.60;;;;;;5112687;28;19926;-67
2024/01/06 04:37:03;;;;;;;;;;;16.50;46.70;;;;;;5128458;28;20275;-68
2024/01/06 04:39:28;;;;;;;;;;;16.50;46.70;;;;;;5095426;28;19920;-67
2024/01/06 04:41:54;;;;;;;;;;;16.50;46.80;;;;;;5098030;28;19920;-67
2024/01/06 04:44:20;;;;;;;;;;;16.40;46.80;;;;;;5098397;28;19919;-68
2024/01/06 04:46:45;;;;;;;;;;;16.40;46.80;;;;;;5098471;28;19919;-67
2024/01/06 04:49:11;;;;;;;;;;;16.40;46.80;;;;;;5116842;28;20389;-68
2024/01/06 04:51:36;;;;;;;;;;;16.40;46.90;;;;;;5098212;28;19919;-68
2024/01/06 04:54:02;;;;;;;;;;;16.40;46.90;;;;;;5098259;28;19924;-67
2024/01/06 04:56:28;;;;;;;;;;;16.30;46.90;;;;;;5116378;28;19924;-67
2024/01/06 04:58:53;;;;;;;;;;;16.30;46.90;;;;;;5116074;28;19931;-68
2024/01/06 05:01:19;;;;;;;;;;;16.30;46.90;;;;;;5097801;28;19920;-68
2024/01/06 05:03:44;;;;;;;;;;;16.30;47.00;;;;;;5097876;28;19920;-68
2024/01/06 05:06:13;;;;;;;;;;;16.20;47.00;;;;;;5097629;28;19923;-67
2024/01/06 05:08:44;;;;;;;;;;;16.20;47.10;;;;;;5097864;28;19920;-68
2024/01/06 05:11:10;;;;;;;;;;;16.20;47.10;;;;;;5098263;28;19924;-70
2024/01/06 05:13:35;;;;;;;;;;;16.10;47.10;;;;;;5097815;28;19931;-68
2024/01/06 05:16:01;;;;;;;;;;;16.10;47.20;;;;;;5131612;27;19920;-68
2024/01/06 05:18:27;;;;;;;;;;;16.10;47.30;;;;;;5097357;28;19924;-68
2024/01/06 05:20:53;;;;;;;;;;;16.10;47.30;;;;;;5097720;28;20006;-68
2024/01/06 05:23:18;;;;;;;;;;;16.00;47.40;;;;;;5115558;28;20376;-68
2024/01/06 05:25:44;;;;;;;;;;;16.00;47.50;;;;;;5131877;27;20347;-68
2024/01/06 05:28:09;;;;;;;;;;;16.00;47.50;;;;;;5131335;27;20018;-68
2024/01/06 05:30:35;;;;;;;;;;;15.90;47.50;;;;;;5097555;28;19958;-68
2024/01/06 05:33:01;;;;;;;;;;;15.90;47.60;;;;;;5115383;28;20367;-67
2024/01/06 05:35:26;;;;;;;;;;;15.90;48.50;;;;;;5097476;28;19920;-67
2024/01/06 05:37:52;;;;;;;;;;;15.80;47.80;;;;;;5115207;28;20024;-68
2024/01/06 05:40:17;;;;;;;;;;;15.80;47.80;;;;;;5097260;28;19919;-68
2024/01/06 05:42:51;;;;;;;;;;;15.70;48.60;;;;;;5097002;28;19924;-68
2024/01/06 05:45:16;;;;;;;;;;;15.70;48.00;;;;;;5096879;28;19930;-67
2024/01/06 05:47:42;;;;;;;;;;;15.60;48.80;;;;;;5096826;28;19923;-67
2024/01/06 05:50:10;;;;;;;;;;;15.60;48.10;;;;;;5096746;28;20323;-68
2024/01/06 05:52:35;;;;;;;;;;;15.50;48.10;;;;;;5115564;28;19965;-67
2024/01/06 05:55:01;;;;;;;;;;;15.50;48.30;;;;;;5131175;27;20328;-67
2024/01/06 05:57:26;;;;;;;;;;;15.60;48.40;;;;;;5114738;28;20405;-68
2024/01/06 05:59:52;;;;;;;;;;;15.80;48.10;;;;;;5131007;27;20136;-68
2024/01/06 06:02:17;;;;;;;;;;;16.10;47.50;;;;;;5130686;27;20002;-67
2024/01/06 06:04:43;;;;;;;;;;;16.40;47.00;;;;;;5114795;28;19926;-68
2024/01/06 06:07:09;;;;;;;;;;;16.70;46.50;;;;;;5096548;28;19923;-67
2024/01/06 06:09:34;;;;;;;;;;;17.00;45.80;;;;;;5096638;28;19985;-67
2024/01/06 06:12:00;;;;;;;;;;;17.40;45.10;;;;;;5080050;28;19920;-67
2024/01/06 06:14:26;;;;;;;;;;;17.90;44.20;;;;;;5096314;28;19970;-68
2024/01/06 06:16:51;;;;;;;;;;;18.30;43.60;;;;;;5096208;28;19920;-68
2024/01/06 06:19:18;;;;;;;;;;;18.70;43.00;;;;;;5096236;28;20014;-67
2024/01/06 06:21:44;;;;;;;;;;;18.90;42.40;;;;;;5096564;28;19920;-67
2024/01/06 06:24:09;;;;;;;;;;;19.00;42.10;;;;;;5096244;28;20018;-67
2024/01/06 06:26:35;;;;;;;;;;;19.10;41.90;;;;;;5130522;27;19920;-67
2024/01/06 06:29:01;;;;;;;;;;;19.10;41.90;;;;;;5114495;28;19964;-68
2024/01/06 06:31:26;;;;;;;;;;;19.00;41.90;;;;;;5096145;28;19963;-67
2024/01/06 06:33:52;;;;;;;;;;;18.90;42.10;;;;;;5095886;28;20019;-67
2024/01/06 06:36:17;;;;;;;;;;;18.70;42.30;;;;;;5114154;28;19916;-66
2024/01/06 06:38:43;;;;;;;;;;;18.50;43.20;;;;;;5114076;28;19924;-67
2024/01/06 06:41:11;;;;;;;;;;;18.40;42.80;;;;;;5114230;28;20427;-67
2024/01/06 06:43:37;;;;;;;;;;;18.20;43.10;;;;;;5095869;28;19926;-68
2024/01/06 06:46:03;;;;;;;;;;;18.10;43.30;;;;;;5095768;28;19923;-67
2024/01/06 06:48:28;;;;;;;;;;;17.90;43.50;;;;;;5095949;28;19934;-68
2024/01/06 06:50:54;;;;;;;;;;;17.70;43.70;;;;;;5095881;28;19920;-67
2024/01/06 06:53:20;;;;;;;;;;;17.60;44.00;;;;;;5095627;28;19920;-68
2024/01/06 06:55:46;;;;;;;;;;;17.40;44.20;;;;;;5095833;28;19926;-67
2024/01/06 06:58:12;;;;;;;;;;;17.30;44.40;;;;;;5095141;28;20401;-67
2024/01/06 07:00:38;;;;;;;;;;;17.20;44.60;;;;;;5113738;28;19924;-67
2024/01/06 07:03:04;;;;;;;;;;;17.10;44.80;;;;;;5112792;28;19924;-68
2024/01/06 07:05:29;;;;;;;;;;;16.90;44.90;;;;;;5113714;28;19920;-68
2024/01/06 07:07:55;;;;;;;;;;;16.90;45.10;;;;;;5113507;28;19927;-67
2024/01/06 07:10:21;;;;;;;;;;;16.70;45.30;;;;;;5095343;28;20462;-68
2024/01/06 07:12:46;;;;;;;;;;;16.70;45.50;;;;;;5095472;28;19927;-67
2024/01/06 07:15:12;;;;;;;;;;;16.70;45.60;;;;;;5095449;28;19967;-67
2024/01/06 07:17:38;;;;;;;;;;;16.70;45.50;;;;;;5095130;28;20374;-68
2024/01/06 07:20:04;;;;;;;;;;;16.70;45.40;;;;;;5095288;28;20363;-68
2024/01/06 07:22:30;;;;;;;;;;;16.80;45.30;;;;;;5095604;28;19919;-68
2024/01/06 07:24:55;;;;;;;;;;;16.80;45.20;;;;;;5095370;28;20294;-67
2024/01/06 07:27:21;;;;;;;;;;;16.80;45.10;;;;;;5095156;28;19927;-68
2024/01/06 07:29:46;;;;;;;;;;;16.80;45.00;;;;;;5113348;28;19920;-67
2024/01/06 07:32:12;;;;;;;;;;;16.80;45.00;;;;;;5095260;28;19924;-67
2024/01/06 07:34:38;;;;;;;;;;;16.80;44.90;;;;;;5077912;28;19920;-67
2024/01/06 07:37:03;;;;;;;;;;;16.80;44.90;;;;;;5128761;27;19928;-67
2024/01/06 07:39:29;;;;;;;;;;;16.80;44.90;;;;;;5129177;27;19967;-67
2024/01/06 07:41:55;;;;;;;;;;;16.80;44.90;;;;;;5095088;28;20366;-67
2024/01/06 07:44:24;;;;;;;;;;;16.80;44.90;;;;;;5094440;28;19926;-68
2024/01/06 07:46:51;;;;;;;;;;;16.80;44.90;;;;;;5112935;28;19963;-67
2024/01/06 07:49:16;;;;;;;;;;;16.70;44.90;;;;;;5094930;28;20444;-68
2024/01/06 07:51:42;;;;;;;;;;;16.70;45.00;;;;;;5094782;28;19923;-68
2024/01/06 07:54:08;;;;;;;;;;;16.70;45.00;;;;;;5128705;27;19920;-67
2024/01/06 07:56:34;;;;;;;;;;;16.70;45.00;;;;;;5112818;28;19924;-68
2024/01/06 07:59:00;;;;;;;;;;;16.70;45.10;;;;;;5094430;28;19924;-68
2024/01/06 08:01:26;;;;;;;;;;;16.70;45.10;;;;;;5094541;28;19927;-67
2024/01/06 08:03:51;;;;;;;;;;;16.60;45.10;;;;;;5095045;28;19920;-67
2024/01/06 08:06:17;;;;;;;;;;;16.60;45.10;;;;;;5112765;28;19967;-68
2024/01/06 08:08:42;;;;;;;;;;;16.60;45.20;;;;;;5094409;28;19928;-67
2024/01/06 08:11:08;;;;;;;;;;;16.60;45.20;;;;;;5129124;28;20383;-67
2024/01/06 08:13:34;;;;;;;;;;;16.60;45.20;;;;;;5095933;28;19970;-67
2024/01/06 08:16:00;;;;;;;;;;;16.60;45.20;;;;;;5098626;28;19958;-67
2024/01/06 08:18:28;;;;;;;;;;;16.50;45.20;;;;;;5116721;28;19966;-68
2024/01/06 08:20:54;;;;;;;;;;;16.50;45.30;;;;;;5098851;28;19920;-67
2024/01/06 08:23:20;;;;;;;;;;;16.50;45.30;;;;;;5117075;28;20289;-67
2024/01/06 08:25:46;;;;;;;;;;;16.50;45.30;;;;;;5116859;28;20401;-67
2024/01/06 08:28:11;;;;;;;;;;;16.40;45.30;;;;;;5133244;27;19920;-67
2024/01/06 08:30:37;;;;;;;;;;;16.40;45.40;;;;;;5116798;28;19988;-67
2024/01/06 08:33:02;;;;;;;;;;;16.40;45.50;;;;;;5133108;27;19931;-68
2024/01/06 08:35:28;;;;;;;;;;;16.30;45.50;;;;;;5098117;28;19919;-68
2024/01/06 08:37:54;;;;;;;;;;;16.30;45.60;;;;;;5098517;28;19976;-68
2024/01/06 08:40:19;;;;;;;;;;;16.30;45.70;;;;;;5116523;28;20371;-67
2024/01/06 08:42:48;;;;;;;;;;;16.30;45.70;;;;;;5098507;28;19920;-67
2024/01/06 08:45:14;;;;;;;;;;;16.20;45.80;;;;;;5098816;28;20267;-67
2024/01/06 08:47:39;;;;;;;;;;;16.20;45.80;;;;;;5097374;28;19926;-66
2024/01/06 08:50:05;;;;;;;;;;;16.20;45.90;;;;;;5092858;28;20399;-67
2024/01/06 08:52:31;;;;;;;;;;;16.10;46.60;;;;;;5097860;28;20002;-67
2024/01/06 08:54:56;;;;;;;;;;;16.10;45.90;;;;;;5115993;28;19926;-67
2024/01/06 08:57:22;;;;;;;;;;;16.10;46.00;;;;;;5097777;28;20340;-67
2024/01/06 08:59:47;;;;;;;;;;;16.00;46.00;;;;;;5098206;28;20343;-67
2024/01/06 09:02:13;;;;;;;;;;;16.00;46.10;;;;;;5116035;28;19920;-67
2024/01/06 09:04:39;;;;;;;;;;;16.00;46.20;;;;;;5098161;28;20260;-67
2024/01/06 09:07:05;;;;;;;;;;;16.00;46.20;;;;;;5097577;28;20018;-67
2024/01/06 09:09:30;;;;;;;;;;;15.90;46.20;;;;;;5116156;28;19920;-67
2024/01/06 09:11:56;;;;;;;;;;;15.90;46.30;;;;;;5116146;28;19919;-67
2024/01/06 09:14:21;;;;;;;;;;;15.90;46.40;;;;;;5097854;28;19920;-67
2024/01/06 09:16:47;;;;;;;;;;;15.80;46.40;;;;;;5089839;28;19924;-67
2024/01/06 09:19:12;;;;;;;;;;;15.80;46.50;;;;;;5095756;28;20366;-65
2024/01/06 09:21:38;;;;;;;;;;;15.70;46.50;;;;;;5081436;28;19920;-66
2024/01/06 09:24:06;;;;;;;;;;;15.70;46.60;;;;;;5093382;28;19924;-66
2024/01/06 09:26:33;;;;;;;;;;;15.80;46.90;;;;;;5080149;28;19920;-64
2024/01/06 09:28:59;;;;;;;;;;;16.00;46.80;;;;;;5115594;28;19920;-65
2024/01/06 09:31:25;;;;;;;;;;;16.30;46.50;;;;;;5131683;27;19927;-66
2024/01/06 09:33:50;;;;;;;;;;;16.50;46.20;;;;;;5097617;28;19919;-64
2024/01/06 09:36:19;;;;;;;;;;;16.80;46.00;;;;;;5097075;28;20455;-66
2024/01/06 09:38:44;;;;;;;;;;;17.10;45.60;;;;;;5096978;28;20006;-64
2024/01/06 09:41:10;;;;;;;;;;;17.50;45.20;;;;;;5115130;28;19926;-64
2024/01/06 09:43:37;;;;;;;;;;;18.00;44.60;;;;;;5097414;28;19920;-64
2024/01/06 09:46:09;;;;;;;;;;;18.30;43.90;;;;;;5097255;28;19938;-64
2024/01/06 09:48:39;;;;;;;;;;;18.60;43.30;;;;;;5114481;28;19926;-64
2024/01/06 09:51:06;;;;;;;;;;;18.90;43.00;;;;;;5097132;28;19919;-68
2024/01/06 09:53:34;;;;;;;;;;;19.00;42.60;;;;;;5086499;28;19920;-66
2024/01/06 09:56:00;;;;;;;;;;;19.10;42.40;;;;;;5115115;28;19955;-64
2024/01/06 09:58:29;;;;;;;;;;;19.10;42.40;;;;;;5094468;28;20220;-66
2024/01/06 10:00:56;;;;;;;;;;;19.10;42.60;;;;;;5094190;28;19920;-66
2024/01/06 10:03:21;;;;;;;;;;;19.00;42.60;;;;;;5114767;28;19973;-66
2024/01/06 10:05:48;;;;;;;;;;;18.80;42.90;;;;;;5096056;28;20316;-66
2024/01/06 10:08:13;;;;;;;;;;;18.70;43.20;;;;;;5114634;28;20378;-66
2024/01/06 10:10:39;;;;;;;;;;;18.60;43.50;;;;;;5114333;28;19956;-66
2024/01/06 10:13:06;;;;;;;;;;;18.40;43.70;;;;;;5095881;28;19967;-66
2024/01/06 10:15:31;;;;;;;;;;;18.30;44.10;;;;;;5114183;28;19919;-65
2024/01/06 10:17:58;;;;;;;;;;;18.10;44.40;;;;;;5114362;28;19923;-66
2024/01/06 10:20:24;;;;;;;;;;;17.90;44.80;;;;;;5096452;28;20011;-65
2024/01/06 10:22:50;;;;;;;;;;;17.80;45.10;;;;;;5096526;28;20014;-64
2024/01/06 10:25:16;;;;;;;;;;;17.60;45.40;;;;;;5096438;28;19923;-65
2024/01/06 10:27:41;;;;;;;;;;;17.50;45.60;;;;;;5096693;28;19920;-66
2024/01/06 10:30:08;;;;;;;;;;;17.40;45.80;;;;;;5095607;28;19926;-65
2024/01/06 10:32:34;;;;;;;;;;;17.20;46.00;;;;;;5096231;28;19969;-66
2024/01/06 10:35:00;;;;;;;;;;;17.10;46.40;;;;;;5114199;28;19974;-65
2024/01/06 10:37:27;;;;;;;;;;;17.00;46.50;;;;;;5115247;27;20000;-67
2024/01/06 10:42:52;;;;;;;;;;;16.80;47.00;;;;;;5110189;27;19912;-64
2024/01/06 10:45:17;;;;;;;;;;;16.80;47.10;;;;;;5109035;28;19920;-66
2024/01/06 10:47:43;;;;;;;;;;;16.90;47.00;;;;;;5109013;28;19927;-66
2024/01/06 10:50:09;;;;;;;;;;;16.90;46.80;;;;;;5108831;28;20292;-65
2024/01/06 10:52:35;;;;;;;;;;;17.00;46.60;;;;;;5108629;28;19931;-70
2024/01/06 10:55:01;;;;;;;;;;;17.00;46.60;;;;;;5108480;28;20461;-71
2024/01/06 10:57:28;;;;;;;;;;;17.00;46.50;;;;;;5109077;28;19967;-70
2024/01/06 10:59:53;;;;;;;;;;;17.00;46.50;;;;;;5108906;28;20108;-72
2024/01/06 11:02:19;;;;;;;;;;;17.00;46.50;;;;;;5108654;28;20084;-72
2024/01/06 11:04:46;;;;;;;;;;;16.90;46.40;;;;;;5108031;28;19920;-72
2024/01/06 11:07:13;;;;;;;;;;;16.90;46.50;;;;;;5108520;28;19927;-71
2024/01/06 11:09:43;;;;;;;;;;;16.90;47.30;;;;;;5143126;27;20287;-70
2024/01/06 11:12:09;;;;;;;;;;;16.90;46.50;;;;;;5108517;28;19927;-70
2024/01/06 11:14:37;;;;;;;;;;;16.80;46.50;;;;;;5109575;28;19920;-71
2024/01/06 11:17:03;;;;;;;;;;;16.80;46.50;;;;;;5108753;28;19971;-72
2024/01/06 11:25:04;;;;;;;;;;;16.70;46.50;;;;;;5110240;27;19918;-72
2024/01/06 11:27:30;;;;;;;;;;;16.70;46.50;;;;;;5110262;28;20023;-72
2024/01/06 11:29:56;;;;;;;;;;;16.60;46.50;;;;;;5108736;28;20359;-72
2024/01/06 11:35:08;;;;;;;;;;;16.60;46.50;;;;;;5110380;27;20377;-72
2024/01/06 11:37:38;;;;;;;;;;;16.60;46.50;;;;;;5108952;28;19931;-72
2024/01/06 11:40:08;;;;;;;;;;;16.50;47.20;;;;;;5108855;28;19927;-72
2024/01/06 11:42:35;;;;;;;;;;;16.50;46.50;;;;;;5108743;28;20406;-72
2024/01/06 11:45:08;;;;;;;;;;;16.50;46.50;;;;;;5109113;28;19920;-72
2024/01/06 11:47:34;;;;;;;;;;;16.50;46.40;;;;;;5108684;28;19927;-72
2024/01/06 11:50:03;;;;;;;;;;;16.50;46.40;;;;;;5106208;28;19921;-73
2024/01/06 11:52:29;;;;;;;;;;;16.50;46.40;;;;;;5102456;28;19921;-73
2024/01/06 11:54:55;;;;;;;;;;;16.50;46.50;;;;;;5129130;27;20311;-72
2024/01/06 11:57:21;;;;;;;;;;;16.40;46.50;;;;;;5105110;28;19932;-72
2024/01/06 11:59:47;;;;;;;;;;;16.40;46.40;;;;;;5088248;28;19927;-71
2024/01/06 12:02:13;;;;;;;;;;;16.40;46.50;;;;;;5089601;28;19964;-71
2024/01/06 12:04:40;;;;;;;;;;;16.30;46.50;;;;;;5104664;28;19972;-72
2024/01/06 12:07:07;;;;;;;;;;;16.30;46.50;;;;;;5107085;28;20402;-71
2024/01/06 12:09:35;;;;;;;;;;;16.30;46.50;;;;;;5109560;28;19920;-71
2024/01/06 12:12:02;;;;;;;;;;;16.30;46.60;;;;;;5108360;28;19920;-71
2024/01/06 12:14:27;;;;;;;;;;;16.20;46.60;;;;;;5109537;28;20292;-72
2024/01/06 12:16:54;;;;;;;;;;;16.20;46.70;;;;;;5109734;28;20158;-72
2024/01/06 12:19:20;;;;;;;;;;;16.20;46.70;;;;;;5108163;28;20008;-72
2024/01/06 12:21:46;;;;;;;;;;;16.10;46.70;;;;;;5108382;28;19970;-71
2024/01/06 12:24:12;;;;;;;;;;;16.10;46.70;;;;;;5108062;28;20398;-71
2024/01/06 12:26:40;;;;;;;;;;;16.10;46.80;;;;;;5108138;28;19928;-72
2024/01/06 12:29:06;;;;;;;;;;;16.10;47.50;;;;;;5109201;28;20430;-71
2024/01/06 12:31:31;;;;;;;;;;;16.00;46.80;;;;;;5108171;28;20019;-71
2024/01/06 12:33:58;;;;;;;;;;;16.00;46.80;;;;;;5107554;28;19988;-71
2024/01/06 12:36:23;;;;;;;;;;;15.90;46.90;;;;;;5108187;28;20010;-72
2024/01/06 12:38:50;;;;;;;;;;;15.90;46.90;;;;;;5107791;28;20421;-71
2024/01/06 12:41:16;;;;;;;;;;;15.90;46.90;;;;;;5107705;28;19999;-72
2024/01/06 12:43:41;;;;;;;;;;;15.90;47.00;;;;;;5107564;28;20015;-72
2024/01/06 12:46:07;;;;;;;;;;;15.80;47.10;;;;;;5095761;28;19924;-71
2024/01/06 12:48:32;;;;;;;;;;;15.80;47.10;;;;;;5095479;28;19966;-72
2024/01/06 12:50:58;;;;;;;;;;;15.70;47.20;;;;;;5093986;28;20272;-72
2024/01/06 12:53:23;;;;;;;;;;;15.70;47.20;;;;;;5094057;28;19924;-72
2024/01/06 12:55:49;;;;;;;;;;;15.70;47.40;;;;;;5093962;28;20276;-71
2024/01/06 12:58:14;;;;;;;;;;;15.70;47.40;;;;;;5093762;28;19924;-72
2024/01/06 13:00:40;;;;;;;;;;;15.80;47.60;;;;;;5094171;28;19920;-72
2024/01/06 13:03:06;;;;;;;;;;;16.00;47.00;;;;;;5095164;28;19920;-71
2024/01/06 13:05:32;;;;;;;;;;;16.30;46.50;;;;;;5094380;28;19927;-71
2024/01/06 13:07:57;;;;;;;;;;;16.60;46.00;;;;;;5077090;28;19931;-72
2024/01/06 13:10:23;;;;;;;;;;;16.90;45.40;;;;;;5094022;28;19926;-71
2024/01/06 13:12:48;;;;;;;;;;;17.30;44.70;;;;;;5094763;28;20287;-72
2024/01/06 13:15:14;;;;;;;;;;;17.70;43.90;;;;;;5127611;27;19920;-72
2024/01/06 13:17:39;;;;;;;;;;;18.20;43.20;;;;;;5093784;28;20007;-72
2024/01/06 13:20:06;;;;;;;;;;;18.70;43.30;;;;;;5093472;28;19920;-72
2024/01/06 13:22:31;;;;;;;;;;;18.90;41.80;;;;;;5093706;28;20170;-71
2024/01/06 13:24:57;;;;;;;;;;;19.10;41.40;;;;;;5093683;28;19967;-71
2024/01/06 13:27:22;;;;;;;;;;;19.20;41.10;;;;;;5093278;28;19920;-71
2024/01/06 13:29:48;;;;;;;;;;;19.20;41.00;;;;;;5093175;28;19924;-71
2024/01/06 13:32:15;;;;;;;;;;;19.20;41.10;;;;;;5093574;28;19920;-71
2024/01/06 13:34:40;;;;;;;;;;;19.00;41.30;;;;;;5092931;28;20341;-71
2024/01/06 13:37:07;;;;;;;;;;;18.90;41.40;;;;;;5093084;28;19920;-71
2024/01/06 13:39:32;;;;;;;;;;;18.70;41.70;;;;;;5094398;28;20366;-71
2024/01/06 13:41:58;;;;;;;;;;;18.60;42.00;;;;;;5093241;28;19959;-71
2024/01/06 13:44:23;;;;;;;;;;;18.40;42.20;;;;;;5093117;28;19920;-71
2024/01/06 13:46:51;;;;;;;;;;;18.20;42.50;;;;;;5092991;28;20407;-71
2024/01/06 13:49:16;;;;;;;;;;;18.00;42.80;;;;;;5094200;28;19970;-71
2024/01/06 13:51:45;;;;;;;;;;;17.90;43.00;;;;;;5093139;28;19935;-71
2024/01/06 13:54:11;;;;;;;;;;;17.70;43.20;;;;;;5093946;28;19942;-71
2024/01/06 13:56:36;;;;;;;;;;;17.60;43.50;;;;;;5091998;28;20401;-71
2024/01/06 13:59:02;;;;;;;;;;;17.40;43.70;;;;;;5092940;28;20355;-71
2024/01/06 14:01:28;;;;;;;;;;;17.30;43.90;;;;;;5092540;28;20011;-71
2024/01/06 14:03:57;;;;;;;;;;;17.10;44.10;;;;;;5094095;28;20020;-71
2024/01/06 14:06:24;;;;;;;;;;;17.00;44.40;;;;;;5092793;28;19946;-72
2024/01/06 14:08:52;;;;;;;;;;;16.80;44.50;;;;;;5092843;28;19920;-71
2024/01/06 14:11:18;;;;;;;;;;;16.80;44.80;;;;;;5092472;28;19924;-71
2024/01/06 14:13:48;;;;;;;;;;;16.70;45.00;;;;;;5092664;28;19924;-71
2024/01/06 14:16:14;;;;;;;;;;;16.70;45.10;;;;;;5092550;28;19924;-72
2024/01/06 14:18:39;;;;;;;;;;;16.70;45.00;;;;;;5092629;28;20448;-72
2024/01/06 14:21:05;;;;;;;;;;;16.80;44.90;;;;;;5093591;28;19946;-72